sensor_id;sensor_type;location;lat;lon;timestamp;P1;durP1;ratioP1;P2;durP2;ratioP2
73154;SDS011;61364;52.418;7.382;2022-08-30T00:00:11;6.16;;;6.16;;
73154;SDS011;61364;52.418;7.382;2022-08-30T00:02:56;5.52;;;5.52;;
73154;SDS011;61364;52.418;7.382;2022-08-30T00:05:23;6.21;;;6.21;;
73154;SDS011;61364;52.418;7.382;2022-08-30T00:07:48;6.31;;;6.31;;
73154;SDS011;61364;52.418;7.382;2022-08-30T00:10:14;6.04;;;6.04;;
73154;SDS011;61364;52.418;7.382;2022-08-30T00:12:40;5.69;;;5.69;;
73154;SDS011;61364;52.418;7.382;2022-08-30T00:15:08;6.24;;;6.24;;
73154;SDS011;61364;52.418;7.382;2022-08-30T00:17:34;6.05;;;6.05;;
73154;SDS011;61364;52.418;7.382;2022-08-30T00:19:59;5.64;;;5.64;;
73154;SDS011;61364;52.418;7.382;2022-08-30T00:22:25;5.43;;;5.43;;
73154;SDS011;61364;52.418;7.382;2022-08-30T00:24:51;5.50;;;5.50;;
73154;SDS011;61364;52.418;7.382;2022-08-30T00:27:17;4.65;;;4.65;;
73154;SDS011;61364;52.418;7.382;2022-08-30T00:29:42;4.77;;;4.77;;
73154;SDS011;61364;52.418;7.382;2022-08-30T00:32:08;4.55;;;4.55;;
73154;SDS011;61364;52.418;7.382;2022-08-30T00:34:34;4.24;;;4.24;;
73154;SDS011;61364;52.418;7.382;2022-08-30T00:36:59;4.49;;;4.49;;
73154;SDS011;61364;52.418;7.382;2022-08-30T00:39:25;4.69;;;4.69;;
73154;SDS011;61364;52.418;7.382;2022-08-30T00:41:50;4.70;;;4.70;;
73154;SDS011;61364;52.418;7.382;2022-08-30T00:44:15;5.37;;;5.37;;
73154;SDS011;61364;52.418;7.382;2022-08-30T00:46:41;5.38;;;5.38;;
73154;SDS011;61364;52.418;7.382;2022-08-30T00:49:08;5.49;;;5.49;;
73154;SDS011;61364;52.418;7.382;2022-08-30T00:51:36;5.35;;;5.35;;
73154;SDS011;61364;52.418;7.382;2022-08-30T00:54:03;4.98;;;4.98;;
73154;SDS011;61364;52.418;7.382;2022-08-30T00:56:30;5.24;;;5.24;;
73154;SDS011;61364;52.418;7.382;2022-08-30T00:58:58;5.37;;;5.37;;
73154;SDS011;61364;52.418;7.382;2022-08-30T01:01:25;5.52;;;5.52;;
73154;SDS011;61364;52.418;7.382;2022-08-30T01:03:52;5.48;;;5.48;;
73154;SDS011;61364;52.418;7.382;2022-08-30T01:06:18;5.69;;;5.69;;
73154;SDS011;61364;52.418;7.382;2022-08-30T01:08:45;6.28;;;6.28;;
73154;SDS011;61364;52.418;7.382;2022-08-30T01:11:12;6.48;;;6.48;;
73154;SDS011;61364;52.418;7.382;2022-08-30T01:13:39;6.63;;;6.63;;
73154;SDS011;61364;52.418;7.382;2022-08-30T01:16:05;6.67;;;6.67;;
73154;SDS011;61364;52.418;7.382;2022-08-30T01:18:32;7.15;;;7.15;;
73154;SDS011;61364;52.418;7.382;2022-08-30T01:21:00;6.99;;;6.99;;
73154;SDS011;61364;52.418;7.382;2022-08-30T01:23:32;6.49;;;6.49;;
73154;SDS011;61364;52.418;7.382;2022-08-30T01:25:59;6.20;;;6.20;;
73154;SDS011;61364;52.418;7.382;2022-08-30T01:28:26;6.20;;;6.20;;
73154;SDS011;61364;52.418;7.382;2022-08-30T01:30:54;6.00;;;6.00;;
73154;SDS011;61364;52.418;7.382;2022-08-30T01:33:20;6.25;;;6.25;;
73154;SDS011;61364;52.418;7.382;2022-08-30T01:35:50;6.37;;;6.37;;
73154;SDS011;61364;52.418;7.382;2022-08-30T01:38:19;5.61;;;5.61;;
73154;SDS011;61364;52.418;7.382;2022-08-30T01:40:46;5.32;;;5.32;;
73154;SDS011;61364;52.418;7.382;2022-08-30T01:43:13;5.46;;;5.46;;
73154;SDS011;61364;52.418;7.382;2022-08-30T01:45:39;5.09;;;5.09;;
73154;SDS011;61364;52.418;7.382;2022-08-30T01:48:05;4.97;;;4.97;;
73154;SDS011;61364;52.418;7.382;2022-08-30T01:50:30;5.02;;;5.02;;
73154;SDS011;61364;52.418;7.382;2022-08-30T01:52:56;4.89;;;4.89;;
73154;SDS011;61364;52.418;7.382;2022-08-30T01:55:21;4.76;;;4.76;;
73154;SDS011;61364;52.418;7.382;2022-08-30T01:57:47;4.70;;;4.70;;
73154;SDS011;61364;52.418;7.382;2022-08-30T02:00:14;4.33;;;4.33;;
73154;SDS011;61364;52.418;7.382;2022-08-30T02:02:40;4.39;;;4.39;;
73154;SDS011;61364;52.418;7.382;2022-08-30T02:05:06;4.16;;;4.16;;
73154;SDS011;61364;52.418;7.382;2022-08-30T02:07:32;4.36;;;4.36;;
73154;SDS011;61364;52.418;7.382;2022-08-30T02:09:57;4.50;;;4.50;;
73154;SDS011;61364;52.418;7.382;2022-08-30T02:12:23;4.27;;;4.27;;
73154;SDS011;61364;52.418;7.382;2022-08-30T02:14:50;4.35;;;4.35;;
73154;SDS011;61364;52.418;7.382;2022-08-30T02:17:15;4.40;;;4.40;;
73154;SDS011;61364;52.418;7.382;2022-08-30T02:19:41;4.56;;;4.56;;
73154;SDS011;61364;52.418;7.382;2022-08-30T02:22:08;4.20;;;4.20;;
73154;SDS011;61364;52.418;7.382;2022-08-30T02:24:33;4.35;;;4.35;;
73154;SDS011;61364;52.418;7.382;2022-08-30T02:26:59;4.43;;;4.43;;
73154;SDS011;61364;52.418;7.382;2022-08-30T02:29:26;4.32;;;4.32;;
73154;SDS011;61364;52.418;7.382;2022-08-30T02:31:51;4.32;;;4.32;;
73154;SDS011;61364;52.418;7.382;2022-08-30T02:34:17;4.37;;;4.37;;
73154;SDS011;61364;52.418;7.382;2022-08-30T02:36:44;4.45;;;4.45;;
73154;SDS011;61364;52.418;7.382;2022-08-30T02:39:10;4.33;;;4.33;;
73154;SDS011;61364;52.418;7.382;2022-08-30T02:41:37;4.33;;;4.33;;
73154;SDS011;61364;52.418;7.382;2022-08-30T02:44:03;4.51;;;4.51;;
73154;SDS011;61364;52.418;7.382;2022-08-30T02:46:29;4.76;;;4.76;;
73154;SDS011;61364;52.418;7.382;2022-08-30T02:48:55;4.54;;;4.54;;
73154;SDS011;61364;52.418;7.382;2022-08-30T02:51:20;4.12;;;4.12;;
73154;SDS011;61364;52.418;7.382;2022-08-30T02:53:46;4.11;;;4.11;;
73154;SDS011;61364;52.418;7.382;2022-08-30T02:56:12;4.35;;;4.35;;
73154;SDS011;61364;52.418;7.382;2022-08-30T02:58:38;3.88;;;3.88;;
73154;SDS011;61364;52.418;7.382;2022-08-30T03:01:07;4.18;;;4.18;;
73154;SDS011;61364;52.418;7.382;2022-08-30T03:03:33;3.97;;;3.97;;
73154;SDS011;61364;52.418;7.382;2022-08-30T03:05:58;3.81;;;3.81;;
73154;SDS011;61364;52.418;7.382;2022-08-30T03:08:24;3.89;;;3.89;;
73154;SDS011;61364;52.418;7.382;2022-08-30T03:10:50;3.94;;;3.94;;
73154;SDS011;61364;52.418;7.382;2022-08-30T03:13:15;3.98;;;3.98;;
73154;SDS011;61364;52.418;7.382;2022-08-30T03:15:40;3.74;;;3.74;;
73154;SDS011;61364;52.418;7.382;2022-08-30T03:18:06;3.80;;;3.80;;
73154;SDS011;61364;52.418;7.382;2022-08-30T03:20:32;3.79;;;3.79;;
73154;SDS011;61364;52.418;7.382;2022-08-30T03:22:59;3.62;;;3.61;;
73154;SDS011;61364;52.418;7.382;2022-08-30T03:25:25;3.95;;;3.95;;
73154;SDS011;61364;52.418;7.382;2022-08-30T03:27:51;3.64;;;3.64;;
73154;SDS011;61364;52.418;7.382;2022-08-30T03:30:17;3.56;;;3.56;;
73154;SDS011;61364;52.418;7.382;2022-08-30T03:32:44;3.40;;;3.40;;
73154;SDS011;61364;52.418;7.382;2022-08-30T03:35:10;3.14;;;3.14;;
73154;SDS011;61364;52.418;7.382;2022-08-30T03:37:36;3.46;;;3.46;;
73154;SDS011;61364;52.418;7.382;2022-08-30T03:40:06;3.12;;;3.12;;
73154;SDS011;61364;52.418;7.382;2022-08-30T03:42:34;3.10;;;3.10;;
73154;SDS011;61364;52.418;7.382;2022-08-30T03:45:00;3.49;;;3.49;;
73154;SDS011;61364;52.418;7.382;2022-08-30T03:47:28;3.13;;;3.13;;
73154;SDS011;61364;52.418;7.382;2022-08-30T03:49:54;3.41;;;3.41;;
73154;SDS011;61364;52.418;7.382;2022-08-30T03:52:20;3.51;;;3.51;;
73154;SDS011;61364;52.418;7.382;2022-08-30T03:54:45;3.53;;;3.53;;
73154;SDS011;61364;52.418;7.382;2022-08-30T03:57:11;3.85;;;3.85;;
73154;SDS011;61364;52.418;7.382;2022-08-30T03:59:37;4.05;;;4.05;;
73154;SDS011;61364;52.418;7.382;2022-08-30T04:02:03;4.06;;;4.06;;
73154;SDS011;61364;52.418;7.382;2022-08-30T04:04:29;4.08;;;4.08;;
73154;SDS011;61364;52.418;7.382;2022-08-30T04:06:55;3.95;;;3.95;;
73154;SDS011;61364;52.418;7.382;2022-08-30T04:09:20;4.22;;;4.22;;
73154;SDS011;61364;52.418;7.382;2022-08-30T04:11:47;4.05;;;4.05;;
73154;SDS011;61364;52.418;7.382;2022-08-30T04:14:12;4.39;;;4.39;;
73154;SDS011;61364;52.418;7.382;2022-08-30T04:16:38;4.44;;;4.44;;
73154;SDS011;61364;52.418;7.382;2022-08-30T04:19:04;4.48;;;4.48;;
73154;SDS011;61364;52.418;7.382;2022-08-30T04:21:29;4.28;;;4.28;;
73154;SDS011;61364;52.418;7.382;2022-08-30T04:23:55;4.12;;;4.12;;
73154;SDS011;61364;52.418;7.382;2022-08-30T04:26:21;4.51;;;4.51;;
73154;SDS011;61364;52.418;7.382;2022-08-30T04:28:47;4.49;;;4.49;;
73154;SDS011;61364;52.418;7.382;2022-08-30T04:31:13;4.80;;;4.80;;
73154;SDS011;61364;52.418;7.382;2022-08-30T04:33:40;4.81;;;4.81;;
73154;SDS011;61364;52.418;7.382;2022-08-30T04:36:06;4.66;;;4.66;;
73154;SDS011;61364;52.418;7.382;2022-08-30T04:38:33;4.24;;;4.24;;
73154;SDS011;61364;52.418;7.382;2022-08-30T04:41:00;4.15;;;4.15;;
73154;SDS011;61364;52.418;7.382;2022-08-30T04:43:26;3.87;;;3.87;;
73154;SDS011;61364;52.418;7.382;2022-08-30T04:45:52;3.88;;;3.88;;
73154;SDS011;61364;52.418;7.382;2022-08-30T04:48:19;4.16;;;4.16;;
73154;SDS011;61364;52.418;7.382;2022-08-30T04:50:46;4.09;;;4.09;;
73154;SDS011;61364;52.418;7.382;2022-08-30T04:53:13;4.17;;;4.17;;
73154;SDS011;61364;52.418;7.382;2022-08-30T04:55:40;4.17;;;4.17;;
73154;SDS011;61364;52.418;7.382;2022-08-30T04:58:07;4.23;;;4.23;;
73154;SDS011;61364;52.418;7.382;2022-08-30T05:00:33;4.59;;;4.59;;
73154;SDS011;61364;52.418;7.382;2022-08-30T05:02:59;4.87;;;4.87;;
73154;SDS011;61364;52.418;7.382;2022-08-30T05:05:25;5.69;;;5.69;;
73154;SDS011;61364;52.418;7.382;2022-08-30T05:08:06;6.04;;;6.04;;
73154;SDS011;61364;52.418;7.382;2022-08-30T05:10:33;5.61;;;5.61;;
73154;SDS011;61364;52.418;7.382;2022-08-30T05:12:58;5.94;;;5.94;;
73154;SDS011;61364;52.418;7.382;2022-08-30T05:15:24;5.79;;;5.79;;
73154;SDS011;61364;52.418;7.382;2022-08-30T05:17:50;5.83;;;5.83;;
73154;SDS011;61364;52.418;7.382;2022-08-30T05:20:15;5.38;;;5.38;;
73154;SDS011;61364;52.418;7.382;2022-08-30T05:22:42;5.73;;;5.73;;
73154;SDS011;61364;52.418;7.382;2022-08-30T05:25:18;5.89;;;5.89;;
73154;SDS011;61364;52.418;7.382;2022-08-30T05:27:44;5.46;;;5.46;;
73154;SDS011;61364;52.418;7.382;2022-08-30T05:30:11;5.90;;;5.90;;
73154;SDS011;61364;52.418;7.382;2022-08-30T05:32:37;5.47;;;5.47;;
73154;SDS011;61364;52.418;7.382;2022-08-30T05:35:06;5.66;;;5.66;;
73154;SDS011;61364;52.418;7.382;2022-08-30T05:37:32;5.76;;;5.76;;
73154;SDS011;61364;52.418;7.382;2022-08-30T05:39:58;5.20;;;5.20;;
73154;SDS011;61364;52.418;7.382;2022-08-30T05:42:24;5.35;;;5.35;;
73154;SDS011;61364;52.418;7.382;2022-08-30T05:44:50;5.25;;;5.25;;
73154;SDS011;61364;52.418;7.382;2022-08-30T05:47:16;5.24;;;5.24;;
73154;SDS011;61364;52.418;7.382;2022-08-30T05:49:41;5.14;;;5.14;;
73154;SDS011;61364;52.418;7.382;2022-08-30T05:52:07;5.36;;;5.36;;
73154;SDS011;61364;52.418;7.382;2022-08-30T05:54:32;5.40;;;5.40;;
73154;SDS011;61364;52.418;7.382;2022-08-30T05:56:58;5.46;;;5.46;;
73154;SDS011;61364;52.418;7.382;2022-08-30T05:59:23;5.26;;;5.26;;
73154;SDS011;61364;52.418;7.382;2022-08-30T06:01:49;5.55;;;5.55;;
73154;SDS011;61364;52.418;7.382;2022-08-30T06:04:15;5.26;;;5.26;;
73154;SDS011;61364;52.418;7.382;2022-08-30T06:06:41;5.50;;;5.50;;
73154;SDS011;61364;52.418;7.382;2022-08-30T06:09:08;5.10;;;5.10;;
73154;SDS011;61364;52.418;7.382;2022-08-30T06:11:35;5.24;;;5.24;;
73154;SDS011;61364;52.418;7.382;2022-08-30T06:14:01;5.42;;;5.42;;
73154;SDS011;61364;52.418;7.382;2022-08-30T06:16:28;5.02;;;5.02;;
73154;SDS011;61364;52.418;7.382;2022-08-30T06:18:55;4.88;;;4.88;;
73154;SDS011;61364;52.418;7.382;2022-08-30T06:21:23;4.86;;;4.86;;
73154;SDS011;61364;52.418;7.382;2022-08-30T06:23:49;4.74;;;4.74;;
73154;SDS011;61364;52.418;7.382;2022-08-30T06:26:16;4.92;;;4.92;;
73154;SDS011;61364;52.418;7.382;2022-08-30T06:28:42;4.92;;;4.92;;
73154;SDS011;61364;52.418;7.382;2022-08-30T06:31:08;4.97;;;4.97;;
73154;SDS011;61364;52.418;7.382;2022-08-30T06:33:35;5.17;;;5.17;;
73154;SDS011;61364;52.418;7.382;2022-08-30T06:36:09;5.06;;;5.06;;
73154;SDS011;61364;52.418;7.382;2022-08-30T06:38:35;4.87;;;4.87;;
73154;SDS011;61364;52.418;7.382;2022-08-30T06:41:06;5.04;;;5.04;;
73154;SDS011;61364;52.418;7.382;2022-08-30T06:43:32;4.42;;;4.42;;
73154;SDS011;61364;52.418;7.382;2022-08-30T06:46:01;4.49;;;4.49;;
73154;SDS011;61364;52.418;7.382;2022-08-30T06:48:27;4.44;;;4.44;;
73154;SDS011;61364;52.418;7.382;2022-08-30T06:50:53;4.28;;;4.28;;
73154;SDS011;61364;52.418;7.382;2022-08-30T06:53:19;4.17;;;4.17;;
73154;SDS011;61364;52.418;7.382;2022-08-30T06:55:44;4.11;;;4.11;;
73154;SDS011;61364;52.418;7.382;2022-08-30T06:58:10;4.25;;;4.25;;
73154;SDS011;61364;52.418;7.382;2022-08-30T07:00:35;3.85;;;3.85;;
73154;SDS011;61364;52.418;7.382;2022-08-30T07:03:01;3.91;;;3.91;;
73154;SDS011;61364;52.418;7.382;2022-08-30T07:05:27;3.62;;;3.62;;
73154;SDS011;61364;52.418;7.382;2022-08-30T07:07:52;3.34;;;3.34;;
73154;SDS011;61364;52.418;7.382;2022-08-30T07:10:19;3.21;;;3.21;;
73154;SDS011;61364;52.418;7.382;2022-08-30T07:12:45;3.16;;;3.16;;
73154;SDS011;61364;52.418;7.382;2022-08-30T07:15:12;2.97;;;2.97;;
73154;SDS011;61364;52.418;7.382;2022-08-30T07:17:38;2.71;;;2.71;;
73154;SDS011;61364;52.418;7.382;2022-08-30T07:20:22;2.73;;;2.73;;
73154;SDS011;61364;52.418;7.382;2022-08-30T07:22:47;2.96;;;2.96;;
73154;SDS011;61364;52.418;7.382;2022-08-30T07:25:13;2.55;;;2.55;;
73154;SDS011;61364;52.418;7.382;2022-08-30T07:27:40;2.57;;;2.57;;
73154;SDS011;61364;52.418;7.382;2022-08-30T07:30:06;2.78;;;2.78;;
73154;SDS011;61364;52.418;7.382;2022-08-30T07:32:33;2.70;;;2.70;;
73154;SDS011;61364;52.418;7.382;2022-08-30T07:34:58;2.58;;;2.58;;
73154;SDS011;61364;52.418;7.382;2022-08-30T07:37:24;2.53;;;2.53;;
73154;SDS011;61364;52.418;7.382;2022-08-30T07:39:50;2.38;;;2.38;;
73154;SDS011;61364;52.418;7.382;2022-08-30T07:42:16;2.62;;;2.62;;
73154;SDS011;61364;52.418;7.382;2022-08-30T07:44:42;2.49;;;2.49;;
73154;SDS011;61364;52.418;7.382;2022-08-30T07:47:08;2.64;;;2.64;;
73154;SDS011;61364;52.418;7.382;2022-08-30T07:49:33;2.80;;;2.80;;
73154;SDS011;61364;52.418;7.382;2022-08-30T07:51:58;2.57;;;2.57;;
73154;SDS011;61364;52.418;7.382;2022-08-30T07:54:24;2.47;;;2.47;;
73154;SDS011;61364;52.418;7.382;2022-08-30T07:56:49;2.31;;;2.31;;
73154;SDS011;61364;52.418;7.382;2022-08-30T07:59:15;2.23;;;2.23;;
73154;SDS011;61364;52.418;7.382;2022-08-30T08:01:40;2.06;;;2.06;;
73154;SDS011;61364;52.418;7.382;2022-08-30T08:04:06;1.82;;;1.82;;
73154;SDS011;61364;52.418;7.382;2022-08-30T08:06:36;1.83;;;1.83;;
73154;SDS011;61364;52.418;7.382;2022-08-30T08:09:02;1.80;;;1.80;;
73154;SDS011;61364;52.418;7.382;2022-08-30T08:11:28;1.79;;;1.79;;
73154;SDS011;61364;52.418;7.382;2022-08-30T08:13:55;1.73;;;1.73;;
73154;SDS011;61364;52.418;7.382;2022-08-30T08:16:22;1.64;;;1.64;;
73154;SDS011;61364;52.418;7.382;2022-08-30T08:18:48;1.66;;;1.66;;
73154;SDS011;61364;52.418;7.382;2022-08-30T08:21:13;1.83;;;1.83;;
73154;SDS011;61364;52.418;7.382;2022-08-30T08:23:39;1.60;;;1.60;;
73154;SDS011;61364;52.418;7.382;2022-08-30T08:26:04;1.77;;;1.77;;
73154;SDS011;61364;52.418;7.382;2022-08-30T08:28:30;1.50;;;1.50;;
73154;SDS011;61364;52.418;7.382;2022-08-30T08:30:55;1.55;;;1.55;;
73154;SDS011;61364;52.418;7.382;2022-08-30T08:33:21;1.66;;;1.66;;
73154;SDS011;61364;52.418;7.382;2022-08-30T08:35:48;1.54;;;1.54;;
73154;SDS011;61364;52.418;7.382;2022-08-30T08:38:14;1.47;;;1.47;;
73154;SDS011;61364;52.418;7.382;2022-08-30T08:43:16;1.46;;;1.46;;
73154;SDS011;61364;52.418;7.382;2022-08-30T08:51:00;1.43;;;1.43;;
73154;SDS011;61364;52.418;7.382;2022-08-30T08:53:50;1.57;;;1.57;;
73154;SDS011;61364;52.418;7.382;2022-08-30T08:56:20;1.76;;;1.76;;
73154;SDS011;61364;52.418;7.382;2022-08-30T09:01:14;1.45;;;1.45;;
73154;SDS011;61364;52.418;7.382;2022-08-30T09:03:41;1.80;;;1.80;;
73154;SDS011;61364;52.418;7.382;2022-08-30T09:08:54;1.48;;;1.48;;
73154;SDS011;61364;52.418;7.382;2022-08-30T09:11:21;1.46;;;1.46;;
73154;SDS011;61364;52.418;7.382;2022-08-30T09:13:48;1.53;;;1.53;;
73154;SDS011;61364;52.418;7.382;2022-08-30T09:16:43;1.44;;;1.44;;
73154;SDS011;61364;52.418;7.382;2022-08-30T09:18:59;1.58;;;1.58;;
73154;SDS011;61364;52.418;7.382;2022-08-30T09:21:24;1.47;;;1.47;;
73154;SDS011;61364;52.418;7.382;2022-08-30T09:23:58;1.41;;;1.41;;
73154;SDS011;61364;52.418;7.382;2022-08-30T09:26:30;1.36;;;1.36;;
73154;SDS011;61364;52.418;7.382;2022-08-30T09:28:57;1.50;;;1.50;;
73154;SDS011;61364;52.418;7.382;2022-08-30T09:31:25;1.54;;;1.54;;
73154;SDS011;61364;52.418;7.382;2022-08-30T09:36:26;1.71;;;1.71;;
73154;SDS011;61364;52.418;7.382;2022-08-30T09:39:00;1.55;;;1.55;;
73154;SDS011;61364;52.418;7.382;2022-08-30T09:41:29;1.54;;;1.54;;
73154;SDS011;61364;52.418;7.382;2022-08-30T09:44:04;1.34;;;1.34;;
73154;SDS011;61364;52.418;7.382;2022-08-30T09:46:31;1.47;;;1.47;;
73154;SDS011;61364;52.418;7.382;2022-08-30T09:48:56;1.53;;;1.53;;
73154;SDS011;61364;52.418;7.382;2022-08-30T09:54:30;2.26;;;2.26;;
73154;SDS011;61364;52.418;7.382;2022-08-30T09:57:10;2.31;;;2.31;;
73154;SDS011;61364;52.418;7.382;2022-08-30T10:05:11;4.96;;;4.85;;
73154;SDS011;61364;52.418;7.382;2022-08-30T10:15:10;1.75;;;1.75;;
73154;SDS011;61364;52.418;7.382;2022-08-30T10:17:57;1.89;;;1.89;;
73154;SDS011;61364;52.418;7.382;2022-08-30T10:23:05;1.53;;;1.53;;
73154;SDS011;61364;52.418;7.382;2022-08-30T10:25:35;1.30;;;1.30;;
73154;SDS011;61364;52.418;7.382;2022-08-30T10:30:29;1.61;;;1.61;;
73154;SDS011;61364;52.418;7.382;2022-08-30T10:33:34;1.81;;;1.81;;
73154;SDS011;61364;52.418;7.382;2022-08-30T10:35:54;1.71;;;1.71;;
73154;SDS011;61364;52.418;7.382;2022-08-30T10:38:29;1.43;;;1.43;;
73154;SDS011;61364;52.418;7.382;2022-08-30T10:41:18;1.73;;;1.73;;
73154;SDS011;61364;52.418;7.382;2022-08-30T10:44:07;1.55;;;1.55;;
73154;SDS011;61364;52.418;7.382;2022-08-30T10:46:48;1.52;;;1.52;;
73154;SDS011;61364;52.418;7.382;2022-08-30T10:49:23;1.46;;;1.46;;
73154;SDS011;61364;52.418;7.382;2022-08-30T10:51:58;1.69;;;1.69;;
73154;SDS011;61364;52.418;7.382;2022-08-30T10:54:49;1.70;;;1.70;;
73154;SDS011;61364;52.418;7.382;2022-08-30T10:57:18;1.46;;;1.46;;
73154;SDS011;61364;52.418;7.382;2022-08-30T10:59:45;1.65;;;1.65;;
73154;SDS011;61364;52.418;7.382;2022-08-30T11:10:07;1.92;;;1.92;;
73154;SDS011;61364;52.418;7.382;2022-08-30T11:15:29;1.75;;;1.75;;
73154;SDS011;61364;52.418;7.382;2022-08-30T11:17:57;1.62;;;1.62;;
73154;SDS011;61364;52.418;7.382;2022-08-30T11:20:40;1.72;;;1.72;;
73154;SDS011;61364;52.418;7.382;2022-08-30T11:25:52;1.71;;;1.71;;
73154;SDS011;61364;52.418;7.382;2022-08-30T11:31:04;1.85;;;1.85;;
73154;SDS011;61364;52.418;7.382;2022-08-30T11:33:51;1.78;;;1.78;;
73154;SDS011;61364;52.418;7.382;2022-08-30T11:38:56;1.69;;;1.69;;
73154;SDS011;61364;52.418;7.382;2022-08-30T11:41:30;1.74;;;1.74;;
73154;SDS011;61364;52.418;7.382;2022-08-30T11:44:13;1.79;;;1.79;;
73154;SDS011;61364;52.418;7.382;2022-08-30T11:46:50;1.59;;;1.59;;
73154;SDS011;61364;52.418;7.382;2022-08-30T11:59:46;1.83;;;1.83;;
73154;SDS011;61364;52.418;7.382;2022-08-30T12:02:38;2.07;;;2.07;;
73154;SDS011;61364;52.418;7.382;2022-08-30T12:05:07;1.97;;;1.97;;
73154;SDS011;61364;52.418;7.382;2022-08-30T12:07:57;1.90;;;1.90;;
73154;SDS011;61364;52.418;7.382;2022-08-30T12:10:21;1.73;;;1.73;;
73154;SDS011;61364;52.418;7.382;2022-08-30T12:12:48;1.70;;;1.70;;
73154;SDS011;61364;52.418;7.382;2022-08-30T12:15:25;1.84;;;1.84;;
73154;SDS011;61364;52.418;7.382;2022-08-30T12:17:56;1.78;;;1.78;;
73154;SDS011;61364;52.418;7.382;2022-08-30T12:20:43;1.84;;;1.84;;
73154;SDS011;61364;52.418;7.382;2022-08-30T12:23:20;1.79;;;1.79;;
73154;SDS011;61364;52.418;7.382;2022-08-30T12:26:13;1.90;;;1.90;;
73154;SDS011;61364;52.418;7.382;2022-08-30T12:28:39;1.89;;;1.89;;
73154;SDS011;61364;52.418;7.382;2022-08-30T12:31:25;1.88;;;1.88;;
73154;SDS011;61364;52.418;7.382;2022-08-30T12:33:58;1.92;;;1.92;;
73154;SDS011;61364;52.418;7.382;2022-08-30T12:36:36;2.10;;;2.10;;
73154;SDS011;61364;52.418;7.382;2022-08-30T12:39:07;2.03;;;2.03;;
73154;SDS011;61364;52.418;7.382;2022-08-30T12:41:34;1.83;;;1.83;;
73154;SDS011;61364;52.418;7.382;2022-08-30T12:43:59;1.84;;;1.84;;
73154;SDS011;61364;52.418;7.382;2022-08-30T12:46:26;1.87;;;1.87;;
73154;SDS011;61364;52.418;7.382;2022-08-30T12:48:54;1.73;;;1.73;;
73154;SDS011;61364;52.418;7.382;2022-08-30T12:51:28;1.73;;;1.73;;
73154;SDS011;61364;52.418;7.382;2022-08-30T12:54:02;1.94;;;1.94;;
73154;SDS011;61364;52.418;7.382;2022-08-30T12:56:47;1.84;;;1.84;;
73154;SDS011;61364;52.418;7.382;2022-08-30T13:02:07;1.89;;;1.89;;
73154;SDS011;61364;52.418;7.382;2022-08-30T13:04:37;1.75;;;1.75;;
73154;SDS011;61364;52.418;7.382;2022-08-30T13:07:03;1.91;;;1.91;;
73154;SDS011;61364;52.418;7.382;2022-08-30T13:11:55;1.91;;;1.91;;
73154;SDS011;61364;52.418;7.382;2022-08-30T13:22:24;1.87;;;1.87;;
73154;SDS011;61364;52.418;7.382;2022-08-30T13:24:50;1.77;;;1.77;;
73154;SDS011;61364;52.418;7.382;2022-08-30T13:27:16;2.01;;;2.01;;
73154;SDS011;61364;52.418;7.382;2022-08-30T13:29:43;1.81;;;1.81;;
73154;SDS011;61364;52.418;7.382;2022-08-30T13:32:08;2.06;;;2.06;;
73154;SDS011;61364;52.418;7.382;2022-08-30T13:34:34;1.98;;;1.98;;
73154;SDS011;61364;52.418;7.382;2022-08-30T13:37:00;1.88;;;1.88;;
73154;SDS011;61364;52.418;7.382;2022-08-30T13:39:27;1.91;;;1.91;;
73154;SDS011;61364;52.418;7.382;2022-08-30T13:41:53;1.89;;;1.89;;
73154;SDS011;61364;52.418;7.382;2022-08-30T13:44:19;1.95;;;1.95;;
73154;SDS011;61364;52.418;7.382;2022-08-30T13:46:51;1.97;;;1.97;;
73154;SDS011;61364;52.418;7.382;2022-08-30T13:49:26;1.78;;;1.78;;
73154;SDS011;61364;52.418;7.382;2022-08-30T13:51:52;1.75;;;1.75;;
73154;SDS011;61364;52.418;7.382;2022-08-30T13:54:19;1.80;;;1.80;;
73154;SDS011;61364;52.418;7.382;2022-08-30T13:56:49;1.92;;;1.92;;
73154;SDS011;61364;52.418;7.382;2022-08-30T13:59:16;1.79;;;1.79;;
73154;SDS011;61364;52.418;7.382;2022-08-30T14:01:43;1.68;;;1.68;;
73154;SDS011;61364;52.418;7.382;2022-08-30T14:04:09;1.63;;;1.63;;
73154;SDS011;61364;52.418;7.382;2022-08-30T14:06:35;1.68;;;1.68;;
73154;SDS011;61364;52.418;7.382;2022-08-30T14:09:00;1.62;;;1.62;;
73154;SDS011;61364;52.418;7.382;2022-08-30T14:11:26;1.65;;;1.65;;
73154;SDS011;61364;52.418;7.382;2022-08-30T14:13:52;1.49;;;1.49;;
73154;SDS011;61364;52.418;7.382;2022-08-30T14:16:17;1.67;;;1.67;;
73154;SDS011;61364;52.418;7.382;2022-08-30T14:18:43;1.63;;;1.63;;
73154;SDS011;61364;52.418;7.382;2022-08-30T14:21:09;1.51;;;1.51;;
73154;SDS011;61364;52.418;7.382;2022-08-30T14:23:34;1.60;;;1.60;;
73154;SDS011;61364;52.418;7.382;2022-08-30T14:26:00;1.57;;;1.57;;
73154;SDS011;61364;52.418;7.382;2022-08-30T14:28:29;1.57;;;1.57;;
73154;SDS011;61364;52.418;7.382;2022-08-30T14:30:55;1.54;;;1.54;;
73154;SDS011;61364;52.418;7.382;2022-08-30T14:33:21;1.44;;;1.44;;
73154;SDS011;61364;52.418;7.382;2022-08-30T14:35:47;1.45;;;1.45;;
73154;SDS011;61364;52.418;7.382;2022-08-30T14:38:13;1.33;;;1.33;;
73154;SDS011;61364;52.418;7.382;2022-08-30T14:40:38;1.30;;;1.30;;
73154;SDS011;61364;52.418;7.382;2022-08-30T14:43:04;1.59;;;1.59;;
73154;SDS011;61364;52.418;7.382;2022-08-30T14:45:31;1.41;;;1.41;;
73154;SDS011;61364;52.418;7.382;2022-08-30T14:47:56;1.55;;;1.55;;
73154;SDS011;61364;52.418;7.382;2022-08-30T14:50:22;1.42;;;1.42;;
73154;SDS011;61364;52.418;7.382;2022-08-30T14:52:48;1.27;;;1.27;;
73154;SDS011;61364;52.418;7.382;2022-08-30T14:55:13;1.30;;;1.30;;
73154;SDS011;61364;52.418;7.382;2022-08-30T14:57:39;1.38;;;1.38;;
73154;SDS011;61364;52.418;7.382;2022-08-30T15:00:06;1.38;;;1.38;;
73154;SDS011;61364;52.418;7.382;2022-08-30T15:02:32;1.25;;;1.25;;
73154;SDS011;61364;52.418;7.382;2022-08-30T15:04:58;1.22;;;1.22;;
73154;SDS011;61364;52.418;7.382;2022-08-30T15:07:23;1.44;;;1.44;;
73154;SDS011;61364;52.418;7.382;2022-08-30T15:09:50;1.18;;;1.18;;
73154;SDS011;61364;52.418;7.382;2022-08-30T15:12:16;1.38;;;1.38;;
73154;SDS011;61364;52.418;7.382;2022-08-30T15:14:41;1.24;;;1.24;;
73154;SDS011;61364;52.418;7.382;2022-08-30T15:17:07;1.24;;;1.24;;
73154;SDS011;61364;52.418;7.382;2022-08-30T15:19:33;1.38;;;1.38;;
73154;SDS011;61364;52.418;7.382;2022-08-30T15:22:02;1.32;;;1.32;;
73154;SDS011;61364;52.418;7.382;2022-08-30T15:24:29;1.22;;;1.22;;
73154;SDS011;61364;52.418;7.382;2022-08-30T15:26:56;1.27;;;1.27;;
73154;SDS011;61364;52.418;7.382;2022-08-30T15:29:21;1.26;;;1.26;;
73154;SDS011;61364;52.418;7.382;2022-08-30T15:31:48;1.22;;;1.22;;
73154;SDS011;61364;52.418;7.382;2022-08-30T15:34:15;1.40;;;1.40;;
73154;SDS011;61364;52.418;7.382;2022-08-30T15:36:42;1.40;;;1.40;;
73154;SDS011;61364;52.418;7.382;2022-08-30T15:39:09;1.36;;;1.36;;
73154;SDS011;61364;52.418;7.382;2022-08-30T15:41:34;1.28;;;1.28;;
73154;SDS011;61364;52.418;7.382;2022-08-30T15:44:00;1.32;;;1.32;;
73154;SDS011;61364;52.418;7.382;2022-08-30T15:46:28;1.34;;;1.34;;
73154;SDS011;61364;52.418;7.382;2022-08-30T15:49:12;1.42;;;1.42;;
73154;SDS011;61364;52.418;7.382;2022-08-30T15:51:39;1.42;;;1.42;;
73154;SDS011;61364;52.418;7.382;2022-08-30T15:54:05;1.38;;;1.38;;
73154;SDS011;61364;52.418;7.382;2022-08-30T15:56:31;1.54;;;1.54;;
73154;SDS011;61364;52.418;7.382;2022-08-30T15:58:57;1.38;;;1.38;;
73154;SDS011;61364;52.418;7.382;2022-08-30T16:01:23;1.32;;;1.32;;
73154;SDS011;61364;52.418;7.382;2022-08-30T16:03:49;1.34;;;1.34;;
73154;SDS011;61364;52.418;7.382;2022-08-30T16:06:19;1.46;;;1.46;;
73154;SDS011;61364;52.418;7.382;2022-08-30T16:08:46;1.46;;;1.46;;
73154;SDS011;61364;52.418;7.382;2022-08-30T16:11:13;1.37;;;1.37;;